AirNav   Air Wisconsin Up To $57,000 Bonus
 
 1759 users online  

3J6 Davis Field Airport
Folkston, Georgia, USA

GOING TO FOLKSTON?


FAA INFORMATION EFFECTIVE 30 JANUARY 2020

Location

FAA Identifier: 3J6
Lat/Long: 30-47-46.9000N 082-01-41.4000W
30-47.781667N 082-01.690000W
30.7963611,-82.0281667
(estimated)
Elevation: 68 ft. / 21 m (estimated)
Variation: 03W (1985)
From city: 3 miles SW of FOLKSTON, GA
Time zone: UTC -5 (UTC -4 during Daylight Saving Time)
Zip code: 31537

Airport Operations

Airport use: Open to the public
Activation date: 11/1962
Control tower: no
ARTCC: JACKSONVILLE CENTER
FSS: MACON FLIGHT SERVICE STATION
NOTAMs facility: MCN (NOTAM-D service available)
Attendance: UNATNDD
Wind indicator: lighted
Segmented circle: yes
Lights: MIRL RY 18/36 PRESET LOW INTST DUSK-2030; AFTER 2030 ACTVT - CTAF.
Beacon: white-green (lighted land airport)
Operates sunset to sunrise.

Airport Communications

CTAF: 122.9

Nearby radio navigation aids

VOR radial/distance  VOR name  Freq  Var
TAYr060/32.2TAYLOR VORTAC112.9003W
SSIr247/33.6BRUNSWICK VORTAC109.8004W
VQQr352/(35.7)CECIL VOR117.9003W
CRGr319/38.3CRAIG VORTAC114.5003W
AYSr136/39.3WAYCROSS VORTAC110.2000E

Airport Services

Parking: tiedowns
Airframe service: NONE
Powerplant service: NONE
Bottled oxygen: NONE
Bulk oxygen: NONE

Runway Information

Runway 18/36

Dimensions: 2500 x 50 ft. / 762 x 15 m
Surface: asphalt, in good condition
Weight bearing capacity: 
Single wheel: 12.5
Runway edge lights: medium intensity
RUNWAY 18  RUNWAY 36
Latitude: 30-47.988333N30-47.575833N
Longitude: 082-01.685000W082-01.694833W
Traffic pattern: leftright
Displaced threshold: no650 ft.
Markings: basic, in good conditionbasic, in good condition
Obstructions: 19 ft. trees, 580 ft. from runway, 100 ft. left of centerline, 20:1 slope to clear42 ft. trees, 201 ft. from runway, 100 ft. left and right of centerline
+50 FT TREES 90 FT LEFT & RIGHT AT THLD

Airport Ownership and Management from official FAA records

Ownership: Publicly-owned
Owner: CHARLTON COUNTY
68 KINGSLAND DR. STE B
FOLKSTON, GA 31537
Phone 912-496-2549
Manager: HAMPTON RAULERSON
68 KINSLAND DR., STE B
FOLKSTON, GA 31537
Phone (912) 886-3260

Airport Operational Statistics

Aircraft based on the field: 5
Single engine airplanes: 5
    
Aircraft operations: avg 61/week *
62% local general aviation
31% transient general aviation
6% military
* for 12-month period ending 01 November 2017

Additional Remarks

LGTD 272 FT AGL TOWER 1000 FT WEST.
FOR CD CTC JACKSONVILLE APCH AT 904-741-0284.

Instrument Procedures

There are no published instrument procedures at 3J6.

Some nearby airports with instrument procedures:

KJAX - Jacksonville International Airport (25 nm SE)
4J1 - Brantley County Airport (25 nm N)
KFHB - Fernandina Beach Municipal Airport (31 nm E)
KAYS - Waycross-Ware County Airport (33 nm NW)
KHEG - Herlong Recreational Airport (33 nm S)
 
Loc | Ops | Rwys | IFR | FBO | Links
Com | Nav | Svcs | Stats | Notes
Area around 3J6 (Davis Field Airport)
 
Road maps at: MapQuest Bing Google
 
Aerial photo
WARNING: Photo may not be current or correct
Aerial photo of 3J6 (Davis Field Airport)
Do you have a better or more recent aerial photo of Davis Field Airport that you would like to share? If so, please send us your photo.

 
Sectional chart

 
Airport distance calculator
Flying to Davis Field Airport? Find the distance to fly.

From to 3J6

Sunrise and sunset
Times for 25-Feb-2020
 Local
(UTC-5)
 Zulu
(UTC)
Morning civil twilight06:3611:36
Sunrise07:0012:00
Sunset18:2223:22
Evening civil twilight18:4723:47

Current date and time
Zulu (UTC)  25-Feb-2020 16:52:12
Local (UTC-5)  25-Feb-2020 11:52:12
 
METAR
KJAX 
25nm SE 
251623Z 13005KT 2SM RA BR SCT018 BKN045 OVC060 18/17 A2994 RMK AO2 P0003 T01830167
KFHB 
31nm E 
251635Z AUTO 14006KT 2SM RA BR SCT019 BKN025 OVC033 16/ A2996 RMK AO2 P0016 T0162////
KHEG 
33nm S 
251635Z AUTO VRB04KT 1 3/4SM -RA SCT007 BKN018 OVC031 18/17 A2997 RMK AO2
KAYS 
33nm NW 
251635Z AUTO 21010KT 10SM BKN009 OVC013 20/17 A2991 RMK AO2 T01950168 TSNO
KVQQ 
36nm S 
251606Z 00000KT 2SM -RA BKN015 OVC023 18/17 A2995
KCRG 
38nm SE 
251621Z 12004KT 7SM -RA BKN020 OVC034 17/17 A2995 RMK AO2 P0000 T01720167
KSSI 
39nm NE 
251553Z AUTO 20005KT 10SM OVC110 17/15 A2993 RMK AO2 RAB1458E53 SLP137 P0001 T01670150
KNIP 
39nm SE 
251553Z 14005KT 7SM -RA FEW020 BKN045 OVC110 19/17 A2995 RMK AO2 SLP138 P0008 T01890167
KBQK 
40nm NE 
251635Z AUTO 16008KT 10SM -RA SCT033 BKN055 OVC110 18/17 A2992 RMK AO2 T01840170
KNRB 
40nm SE 
251615Z 11006KT 4SM -RA BR SCT020 BKN045 OVC060 16/16 A2995 RMK AO2 P0000 T01610156
TAF
KJAX 
25nm SE 
251557Z 2516/2612 VRB05KT 2SM -SHRA BR OVC025 TEMPO 2516/2518 1SM SHRA BR OVC009 FM251800 20008KT 4SM SHRA BR OVC025 FM252100 20007KT 4SM SHRA BR OVC015 FM260100 20005KT 3SM -SHRA BR OVC007 FM260400 20004KT 2SM -SHRA BR OVC003 FM260900 VRB03KT 4SM BR OVC003
NOTAMs
Click for the latest NOTAMs
NOTAMs are issued by the DoD/FAA and will open in a separate window not controlled by AirNav.

 

 
 

Would you like to see your business listed on this page?

 If your business provides an interesting product or service to pilots, flight crews, aircraft, or users of the Davis Field Airport, you should consider listing it here.  To start the listing process, click on the button below
 
Add a business
 

Other Pages about Davis Field Airport

Update a link
 
Copyright © AirNav, LLC. All rights reserved. Privacy Policy  Contact